Time;durP1;ratioP1;P1;durP2;ratioP2;P2;SDS_P1;SDS_P2;PMS_P1;PMS_P2;Temp;Humidity;BMP_temperature;BMP_pressure;BME280_temperature;BME280_humidity;BME280_pressure;Samples;Min_cycle;Max_cycle;Signal;HPM_P1;HPM_P2
2023/08/07 00:04:03;;;;;;;10.23;3.17;;;;;11.30;101069.00;;;;10277263;28;20474;-81
2023/08/07 00:09:04;;;;;;;16.47;3.30;;;;;11.30;101074.00;;;;10261116;28;20215;-81
2023/08/07 00:14:06;;;;;;;9.63;3.03;;;;;11.30;101066.00;;;;10260076;28;20203;-82
2023/08/07 00:19:07;;;;;;;11.97;3.30;;;;;11.30;101068.00;;;;10280907;28;20277;-80
2023/08/07 00:24:09;;;;;;;10.13;3.00;;;;;11.30;101069.00;;;;10277362;28;20294;-82
2023/08/07 00:29:10;;;;;;;11.33;3.00;;;;;11.30;101069.00;;;;10276498;28;20259;-81
2023/08/07 00:34:11;;;;;;;8.20;3.97;;;;;11.30;101067.00;;;;10229420;28;20217;-82
2023/08/07 00:39:13;;;;;;;12.93;3.53;;;;;11.30;101067.00;;;;10262271;28;20261;-81
2023/08/07 00:44:15;;;;;;;8.67;2.60;;;;;11.30;101078.00;;;;10278076;28;20269;-82
2023/08/07 00:49:18;;;;;;;4.57;2.60;;;;;11.30;101075.00;;;;10279391;28;21700;-81
2023/08/07 00:54:20;;;;;;;9.93;3.60;;;;;11.30;101077.00;;;;10260991;28;20226;-81
2023/08/07 00:59:22;;;;;;;8.40;3.03;;;;;11.30;101076.00;;;;10264434;28;20652;-82
2023/08/07 01:04:23;;;;;;;5.03;2.77;;;;;11.30;101081.00;;;;10248875;28;20207;-76
2023/08/07 01:09:25;;;;;;;8.17;3.20;;;;;11.30;101079.00;;;;10248401;28;21236;-78
2023/08/07 01:14:32;;;;;;;8.00;2.33;;;;;11.30;101081.00;;;;10267272;28;21003;-78
2023/08/07 01:19:35;;;;;;;4.73;2.53;;;;;11.20;101086.00;;;;10229080;28;20942;-77
2023/08/07 01:24:38;;;;;;;4.53;2.20;;;;;11.10;101086.00;;;;10262599;28;20496;-78
2023/08/07 01:30:07;;;;;;;5.53;2.30;;;;;11.10;101099.00;;;;10232206;28;20235;-77
2023/08/07 01:35:11;;;;;;;6.13;2.70;;;;;11.10;101080.00;;;;10264093;28;20212;-78
2023/08/07 01:40:15;;;;;;;5.37;2.53;;;;;11.00;101085.00;;;;10262313;28;20922;-79
2023/08/07 01:45:27;;;;;;;5.37;3.00;;;;;11.00;101084.00;;;;10245061;28;20953;-77
2023/08/07 01:50:29;;;;;;;6.47;2.60;;;;;11.00;101083.00;;;;10264452;28;20308;-79
2023/08/07 01:55:30;;;;;;;7.97;2.50;;;;;11.00;101084.00;;;;10241355;28;20563;-78
2023/08/07 02:00:31;;;;;;;7.20;2.50;;;;;10.90;101085.00;;;;10246413;28;21696;-77
2023/08/07 02:05:33;;;;;;;7.67;2.60;;;;;10.90;101089.00;;;;10245325;28;20214;-77
2023/08/07 02:10:36;;;;;;;8.37;2.73;;;;;10.80;101087.00;;;;10227536;28;20223;-78
2023/08/07 02:15:37;;;;;;;9.33;2.67;;;;;10.80;101083.00;;;;10247075;28;20273;-77
2023/08/07 02:20:38;;;;;;;7.43;2.27;;;;;10.80;101099.00;;;;10237273;28;20231;-77
2023/08/07 02:25:40;;;;;;;8.47;2.43;;;;;10.80;101099.00;;;;10263471;28;20291;-77
2023/08/07 02:30:46;;;;;;;7.03;2.83;;;;;10.80;101092.00;;;;10245629;28;20207;-79
2023/08/07 02:35:49;;;;;;;3.77;2.17;;;;;10.80;101105.00;;;;10244978;28;20211;-78
2023/08/07 02:40:51;;;;;;;7.13;2.20;;;;;10.70;101100.00;;;;10221931;28;20823;-77
2023/08/07 02:45:53;;;;;;;10.60;2.67;;;;;10.70;101105.00;;;;10232501;28;20229;-78
2023/08/07 02:50:54;;;;;;;3.47;2.37;;;;;10.70;101102.00;;;;10235343;28;20676;-79
2023/08/07 02:55:56;;;;;;;7.20;2.73;;;;;10.60;101091.00;;;;10268568;28;20204;-78
2023/08/07 03:01:03;;;;;;;6.87;2.37;;;;;10.60;101091.00;;;;10250419;28;20207;-78
2023/08/07 03:06:05;;;;;;;6.10;2.40;;;;;10.50;101083.00;;;;10253918;28;20223;-79
2023/08/07 03:11:06;;;;;;;6.60;2.40;;;;;10.50;101088.00;;;;10249554;28;20593;-78
2023/08/07 03:16:08;;;;;;;8.57;2.50;;;;;10.50;101079.00;;;;10235878;28;20270;-77
2023/08/07 03:21:09;;;;;;;6.00;2.77;;;;;10.50;101085.00;;;;10246032;28;20929;-77
2023/08/07 03:26:12;;;;;;;6.00;2.60;;;;;10.50;101090.00;;;;10251453;28;20227;-78
2023/08/07 03:31:21;;;;;;;8.30;2.40;;;;;10.50;101088.00;;;;10252584;28;20236;-78
2023/08/07 03:36:23;;;;;;;6.80;2.30;;;;;10.50;101090.00;;;;10233385;28;20239;-78
2023/08/07 03:41:26;;;;;;;8.97;3.33;;;;;10.50;101085.00;;;;10217318;28;21475;-77
2023/08/07 03:46:27;;;;;;;6.37;2.70;;;;;10.50;101090.00;;;;10235380;28;20242;-78
2023/08/07 03:51:30;;;;;;;6.27;2.50;;;;;10.70;101090.00;;;;10248786;28;20273;-78
2023/08/07 03:56:36;;;;;;;7.60;2.43;;;;;10.80;101088.00;;;;10249856;28;20211;-78
2023/08/07 04:01:38;;;;;;;9.57;2.73;;;;;11.00;101087.00;;;;10216933;28;20215;-77
2023/08/07 04:06:40;;;;;;;9.40;2.37;;;;;11.00;101092.00;;;;10248245;28;20791;-79
2023/08/07 04:11:41;;;;;;;6.57;2.60;;;;;11.00;101103.00;;;;10231325;28;21919;-78
2023/08/07 04:16:42;;;;;;;13.40;2.77;;;;;10.90;101106.00;;;;10247036;28;20302;-78
2023/08/07 04:21:45;;;;;;;6.20;2.47;;;;;10.90;101110.00;;;;10266821;28;20307;-79
2023/08/07 04:26:46;;;;;;;6.13;2.50;;;;;10.90;101109.00;;;;10230466;28;20412;-78
2023/08/07 04:31:48;;;;;;;4.70;2.60;;;;;10.90;101112.00;;;;10263467;28;20199;-79
2023/08/07 04:36:51;;;;;;;7.90;2.80;;;;;11.00;101114.00;;;;10247031;28;20226;-78
2023/08/07 04:41:53;;;;;;;5.40;2.20;;;;;11.10;101103.00;;;;10246344;28;20242;-78
2023/08/07 04:46:54;;;;;;;7.57;2.90;;;;;11.20;101116.00;;;;10248885;28;20223;-78
2023/08/07 04:51:56;;;;;;;6.60;3.20;;;;;11.20;101117.00;;;;10263489;28;20289;-77
2023/08/07 04:56:57;;;;;;;5.20;2.50;;;;;11.20;101115.00;;;;10246081;28;20199;-77
2023/08/07 05:01:59;;;;;;;8.37;3.10;;;;;11.30;101124.00;;;;10244775;28;20221;-79
2023/08/07 05:07:00;;;;;;;5.63;2.50;;;;;11.30;101126.00;;;;10262517;28;20521;-79
2023/08/07 05:12:02;;;;;;;9.17;3.10;;;;;11.40;101141.00;;;;10230672;28;20732;-78
2023/08/07 05:17:03;;;;;;;5.73;2.50;;;;;11.70;101150.00;;;;10262899;28;20207;-78
2023/08/07 05:22:05;;;;;;;7.83;3.63;;;;;11.90;101141.00;;;;10243062;28;20221;-78
2023/08/07 05:27:09;;;;;;;7.77;2.57;;;;;12.20;101143.00;;;;10261901;28;20231;-78
2023/08/07 05:32:11;;;;;;;4.93;2.80;;;;;12.40;101142.00;;;;10260814;28;21688;-78
2023/08/07 05:37:13;;;;;;;8.20;2.70;;;;;12.80;101140.00;;;;10228833;28;20921;-77
2023/08/07 05:42:14;;;;;;;7.03;2.53;;;;;13.10;101145.00;;;;10245465;28;20203;-78
2023/08/07 05:47:16;;;;;;;6.90;2.47;;;;;13.40;101146.00;;;;10230042;28;20227;-78
2023/08/07 05:52:18;;;;;;;6.95;2.03;;;;;13.70;101153.00;;;;10261912;28;20293;-79
2023/08/07 05:57:19;;;;;;;8.68;2.72;;;;;14.10;101166.00;;;;10245813;28;20559;-77
2023/08/07 06:02:21;;;;;;;7.20;2.70;;;;;14.60;101170.00;;;;10248229;28;20218;-78
2023/08/07 06:07:22;;;;;;;4.38;2.10;;;;;15.20;101181.00;;;;10229292;28;20482;-78
2023/08/07 06:12:23;;;;;;;5.95;2.33;;;;;15.60;101175.00;;;;10249277;28;20239;-78
2023/08/07 06:17:25;;;;;;;5.30;1.92;;;;;15.90;101194.00;;;;10237950;28;20203;-78
2023/08/07 06:22:26;;;;;;;3.65;1.75;;;;;16.20;101193.00;;;;10270700;28;20414;-77
2023/08/07 06:27:28;;;;;;;4.28;2.08;;;;;16.60;101184.00;;;;10269065;28;20237;-78
2023/08/07 06:32:29;;;;;;;6.28;2.20;;;;;16.80;101200.00;;;;10253872;28;20266;-78
2023/08/07 06:37:31;;;;;;;10.45;2.70;;;;;16.90;101198.00;;;;10237348;28;20238;-78
2023/08/07 06:42:33;;;;;;;7.63;2.20;;;;;17.10;101204.00;;;;10252735;28;20227;-77
2023/08/07 06:47:34;;;;;;;7.40;2.90;;;;;17.30;101199.00;;;;10270936;28;20231;-79
2023/08/07 06:52:35;;;;;;;7.88;2.72;;;;;17.50;101212.00;;;;10270870;28;20932;-79
2023/08/07 06:57:37;;;;;;;9.68;2.88;;;;;17.80;101206.00;;;;10268235;28;20211;-78
2023/08/07 07:02:38;;;;;;;4.75;2.00;;;;;18.00;101216.00;;;;10253286;28;20333;-77
2023/08/07 07:07:40;;;;;;;5.18;1.73;;;;;18.30;101206.00;;;;10272644;28;20783;-78
2023/08/07 07:12:41;;;;;;;2.00;1.60;;;;;18.30;101208.00;;;;10250975;28;20223;-79
2023/08/07 07:17:42;;;;;;;4.57;2.08;;;;;18.40;101219.00;;;;10251645;28;20414;-78
2023/08/07 07:22:44;;;;;;;7.47;2.15;;;;;18.60;101213.00;;;;10254047;28;20206;-78
2023/08/07 07:27:46;;;;;;;5.07;2.30;;;;;18.70;101216.00;;;;10250660;28;20448;-78
2023/08/07 07:32:49;;;;;;;4.57;2.05;;;;;18.20;101211.00;;;;10249404;28;20210;-77
2023/08/07 07:37:51;;;;;;;2.72;1.63;;;;;18.40;101217.00;;;;10250559;28;20976;-77
2023/08/07 07:42:52;;;;;;;4.75;1.45;;;;;18.80;101213.00;;;;10250398;28;20614;-76
2023/08/07 07:47:54;;;;;;;8.57;1.90;;;;;19.10;101225.00;;;;10248842;28;20882;-79
2023/08/07 07:52:55;;;;;;;4.13;1.73;;;;;19.60;101227.00;;;;10265488;28;21353;-79
2023/08/07 07:57:56;;;;;;;4.25;1.65;;;;;19.60;101234.00;;;;10214407;28;20250;-77
2023/08/07 08:02:59;;;;;;;11.32;2.95;;;;;19.90;101246.00;;;;10256223;28;20211;-76
2023/08/07 08:08:01;;;;;;;6.22;1.92;;;;;20.20;101241.00;;;;10236785;28;20250;-76
2023/08/07 08:13:03;;;;;;;7.78;2.30;;;;;20.30;101251.00;;;;10256845;28;20816;-77
2023/08/07 08:18:05;;;;;;;4.20;1.80;;;;;20.30;101245.00;;;;10244169;28;20215;-76
2023/08/07 08:23:07;;;;;;;3.63;2.13;;;;;20.00;101256.00;;;;10238086;28;20211;-75
2023/08/07 08:28:08;;;;;;;4.88;2.08;;;;;21.10;101251.00;;;;10258064;28;20230;-76
2023/08/07 08:33:12;;;;;;;6.32;2.10;;;;;20.20;101267.00;;;;10209386;28;20215;-76
2023/08/07 08:38:16;;;;;;;8.18;2.10;;;;;20.60;101266.00;;;;10243097;28;20293;-76
2023/08/07 08:43:25;;;;;;;7.60;2.58;;;;;21.40;101264.00;;;;10260479;28;20301;-76
2023/08/07 08:48:31;;;;;;;5.68;2.17;;;;;21.70;101270.00;;;;10259796;28;20219;-75
2023/08/07 08:53:33;;;;;;;3.97;2.08;;;;;19.70;101281.00;;;;10261854;28;20286;-77
2023/08/07 08:58:34;;;;;;;3.28;2.03;;;;;20.60;101275.00;;;;10246358;28;20219;-77
2023/08/07 09:03:36;;;;;;;5.53;2.42;;;;;21.50;101277.00;;;;10260078;28;20755;-76
2023/08/07 09:08:39;;;;;;;5.45;2.20;;;;;21.10;101269.00;;;;10246004;28;20282;-76
2023/08/07 09:13:42;;;;;;;5.75;1.80;;;;;21.30;101281.00;;;;10244584;28;20230;-77
2023/08/07 09:18:45;;;;;;;1.88;1.77;;;;;21.90;101277.00;;;;10263751;28;20211;-76
2023/08/07 09:23:46;;;;;;;2.50;1.65;;;;;21.60;101293.00;;;;10261652;28;20550;-77
2023/08/07 09:28:48;;;;;;;2.40;1.60;;;;;20.30;101287.00;;;;10242668;28;20269;-76
2023/08/07 09:33:49;;;;;;;4.10;2.08;;;;;20.80;101261.00;;;;10259417;28;20293;-75
2023/08/07 09:38:50;;;;;;;4.82;1.80;;;;;21.50;101286.00;;;;10258951;28;20203;-76
2023/08/07 09:43:52;;;;;;;1.80;1.33;;;;;22.40;101271.00;;;;10258534;28;20211;-77
2023/08/07 09:48:57;;;;;;;6.07;1.38;;;;;23.10;101266.00;;;;10261047;28;21286;-77
2023/08/07 09:53:59;;;;;;;3.53;1.80;;;;;22.30;101296.00;;;;10259782;28;20215;-77
2023/08/07 09:59:00;;;;;;;3.00;1.40;;;;;20.40;101284.00;;;;10259453;28;21443;-75
2023/08/07 10:04:02;;;;;;;3.38;1.63;;;;;22.10;101284.00;;;;10260111;28;20215;-76
2023/08/07 10:09:04;;;;;;;2.13;1.50;;;;;23.20;101288.00;;;;10258487;28;20837;-77
2023/08/07 10:14:05;;;;;;;3.75;1.65;;;;;23.90;101295.00;;;;10259218;28;20215;-77
2023/08/07 10:19:08;;;;;;;5.95;1.80;;;;;24.50;101297.00;;;;10242562;28;20211;-76
2023/08/07 10:24:12;;;;;;;2.22;1.42;;;;;23.90;101299.00;;;;10241717;28;20317;-76
2023/08/07 10:29:16;;;;;;;3.05;1.58;;;;;21.90;101301.00;;;;10259061;28;20227;-77
2023/08/07 10:34:18;;;;;;;3.88;1.42;;;;;23.10;101296.00;;;;10258735;28;20199;-76
2023/08/07 10:39:19;;;;;;;3.85;1.60;;;;;23.60;101296.00;;;;10258982;28;20224;-75
2023/08/07 10:44:23;;;;;;;4.28;1.73;;;;;23.40;101310.00;;;;10243174;28;21596;-75
2023/08/07 10:49:39;;;;;;;3.20;2.00;;;;;24.20;101301.00;;;;10258926;28;20235;-76
2023/08/07 10:54:46;;;;;;;3.45;1.55;;;;;25.00;101306.00;;;;10236323;28;20203;-77
2023/08/07 11:00:01;;;;;;;3.50;1.70;;;;;24.90;101309.00;;;;10263499;28;20693;-75
2023/08/07 11:05:04;;;;;;;1.95;1.38;;;;;23.10;101312.00;;;;10245634;28;20211;-76
2023/08/07 11:10:05;;;;;;;2.55;1.45;;;;;22.30;101306.00;;;;10264726;28;20508;-77
2023/08/07 11:15:11;;;;;;;1.83;1.33;;;;;23.80;101299.00;;;;10263738;28;20215;-76
2023/08/07 11:20:12;;;;;;;2.85;1.70;;;;;23.90;101299.00;;;;10262390;28;21173;-77
2023/08/07 11:25:15;;;;;;;2.22;1.50;;;;;23.80;101300.00;;;;10264415;28;20207;-76
2023/08/07 11:30:16;;;;;;;2.72;1.38;;;;;25.10;101306.00;;;;10229452;28;20227;-76
2023/08/07 11:35:18;;;;;;;3.85;1.67;;;;;23.50;101303.00;;;;10260557;28;20295;-76
2023/08/07 11:40:19;;;;;;;3.58;1.63;;;;;23.00;101311.00;;;;10265446;28;20217;-75
2023/08/07 11:45:20;;;;;;;3.67;1.73;;;;;22.50;101298.00;;;;10262707;28;20211;-77
2023/08/07 11:50:28;;;;;;;4.00;1.63;;;;;23.80;101298.00;;;;10244940;28;20233;-76
2023/08/07 11:55:30;;;;;;;3.22;1.42;;;;;22.50;101295.00;;;;10261527;28;20254;-75
2023/08/07 12:00:34;;;;;;;2.88;1.50;;;;;21.40;101290.00;;;;10230042;28;20260;-77
2023/08/07 12:05:40;;;;;;;2.63;1.10;;;;;23.60;101283.00;;;;10261847;28;20208;-76
2023/08/07 12:10:42;;;;;;;1.70;1.33;;;;;22.80;101295.00;;;;10258128;28;21400;-76
2023/08/07 12:15:43;;;;;;;3.15;1.75;;;;;21.90;101288.00;;;;10259320;28;20897;-75
2023/08/07 12:20:45;;;;;;;1.55;1.40;;;;;21.90;101296.00;;;;10261696;28;20208;-76
2023/08/07 12:25:46;;;;;;;3.00;1.83;;;;;22.80;101278.00;;;;10242707;28;20238;-77
2023/08/07 12:30:48;;;;;;;1.92;1.45;;;;;23.30;101277.00;;;;10242816;28;22011;-76
2023/08/07 12:35:49;;;;;;;1.85;1.70;;;;;23.20;101285.00;;;;10244522;28;20269;-76
2023/08/07 12:40:51;;;;;;;1.77;1.35;;;;;24.10;101270.00;;;;10242759;28;22081;-76
2023/08/07 12:45:52;;;;;;;1.75;1.30;;;;;22.90;101272.00;;;;10241588;28;21569;-75
2023/08/07 12:50:55;;;;;;;2.47;1.45;;;;;22.20;101272.00;;;;10233612;28;20233;-77
2023/08/07 12:55:56;;;;;;;2.08;1.52;;;;;24.70;101256.00;;;;10255896;28;20207;-76
2023/08/07 13:00:57;;;;;;;2.95;1.65;;;;;25.10;101261.00;;;;10261242;28;20303;-76
2023/08/07 13:05:59;;;;;;;2.58;1.35;;;;;25.90;101254.00;;;;10256868;28;20230;-76
2023/08/07 13:11:03;;;;;;;2.67;1.30;;;;;27.00;101250.00;;;;10257665;28;20896;-76
2023/08/07 13:16:04;;;;;;;1.70;1.38;;;;;27.50;101255.00;;;;10240823;28;20218;-77
2023/08/07 13:21:06;;;;;;;2.75;1.33;;;;;26.60;101252.00;;;;10261236;28;20219;-76
2023/08/07 13:26:07;;;;;;;1.17;0.98;;;;;27.70;101251.00;;;;10257271;28;20241;-76
2023/08/07 13:31:08;;;;;;;1.20;1.10;;;;;27.20;101250.00;;;;10258818;28;20617;-76
2023/08/07 13:36:10;;;;;;;1.48;1.00;;;;;27.00;101256.00;;;;10259015;28;20212;-76
2023/08/07 13:41:11;;;;;;;3.03;0.77;;;;;25.00;101267.00;;;;10255851;28;20297;-76
2023/08/07 13:46:13;;;;;;;1.45;0.70;;;;;24.30;101257.00;;;;10258485;28;20200;-77
2023/08/07 13:51:15;;;;;;;0.80;0.80;;;;;24.80;101252.00;;;;10258013;28;20755;-75
2023/08/07 13:56:16;;;;;;;1.45;0.80;;;;;24.90;101248.00;;;;10239484;28;20191;-77
2023/08/07 14:01:18;;;;;;;0.80;0.77;;;;;24.20;101256.00;;;;10257856;28;20219;-76
2023/08/07 14:06:20;;;;;;;1.13;0.75;;;;;22.60;101262.00;;;;10253870;28;20213;-76
2023/08/07 14:11:24;;;;;;;0.85;0.80;;;;;22.20;101261.00;;;;10257890;28;20215;-76
2023/08/07 14:16:25;;;;;;;0.95;0.80;;;;;23.70;101255.00;;;;10258603;28;20230;-76
2023/08/07 14:21:27;;;;;;;0.55;0.55;;;;;24.10;101248.00;;;;10222115;28;20262;-76
2023/08/07 14:26:28;;;;;;;1.77;0.63;;;;;24.00;101252.00;;;;10237997;28;20214;-76
2023/08/07 14:31:29;;;;;;;2.88;0.88;;;;;24.20;101264.00;;;;10261276;28;20239;-76
2023/08/07 14:36:31;;;;;;;4.88;1.00;;;;;24.10;101264.00;;;;10263141;28;20215;-76
2023/08/07 14:41:32;;;;;;;1.98;0.73;;;;;25.00;101267.00;;;;10244691;28;20301;-75
2023/08/07 14:46:33;;;;;;;1.25;0.80;;;;;25.10;101263.00;;;;10262850;28;20207;-77
2023/08/07 14:51:35;;;;;;;1.63;0.80;;;;;24.30;101271.00;;;;10262453;28;20595;-76
2023/08/07 14:56:36;;;;;;;3.15;0.85;;;;;24.30;101267.00;;;;10246265;28;20326;-76
2023/08/07 15:01:37;;;;;;;2.72;0.88;;;;;24.40;101284.00;;;;10260913;28;20208;-75
2023/08/07 15:06:39;;;;;;;0.40;0.40;;;;;22.90;101291.00;;;;10259923;28;20911;-77
2023/08/07 15:11:40;;;;;;;2.85;0.90;;;;;22.60;101287.00;;;;10261752;28;20248;-75
2023/08/07 15:16:43;;;;;;;1.50;1.08;;;;;23.20;101284.00;;;;10262726;28;20216;-77
2023/08/07 15:21:44;;;;;;;0.60;0.60;;;;;22.80;101282.00;;;;10261356;28;20207;-75
2023/08/07 15:26:46;;;;;;;1.50;0.85;;;;;22.60;101251.00;;;;10257498;28;20214;-76
2023/08/07 15:31:47;;;;;;;1.60;0.88;;;;;22.90;101280.00;;;;10259556;28;20215;-76
2023/08/07 15:36:48;;;;;;;2.17;0.88;;;;;22.30;101281.00;;;;10260499;28;20212;-75
2023/08/07 15:41:50;;;;;;;1.48;0.73;;;;;22.40;101293.00;;;;10258988;28;20298;-75
2023/08/07 15:46:51;;;;;;;0.73;0.70;;;;;22.40;101283.00;;;;10261705;28;20211;-77
2023/08/07 15:51:52;;;;;;;1.30;0.80;;;;;23.40;101282.00;;;;10263183;28;20245;-76
2023/08/07 15:56:57;;;;;;;1.00;0.60;;;;;22.00;101291.00;;;;10241886;28;20253;-77
2023/08/07 16:01:58;;;;;;;1.50;0.60;;;;;20.90;101277.00;;;;10243132;28;20880;-76
2023/08/07 16:06:59;;;;;;;2.10;0.80;;;;;21.00;101286.00;;;;10259029;28;20313;-76
2023/08/07 16:12:01;;;;;;;1.52;0.70;;;;;21.20;101276.00;;;;10242289;28;20204;-76
2023/08/07 16:17:03;;;;;;;1.45;0.70;;;;;21.20;101280.00;;;;10261949;28;20254;-75
2023/08/07 16:22:04;;;;;;;1.80;0.80;;;;;21.20;101275.00;;;;10256796;28;20254;-76
2023/08/07 16:27:06;;;;;;;2.75;1.23;;;;;21.00;101275.00;;;;10253846;28;20226;-76
2023/08/07 16:32:08;;;;;;;2.20;1.10;;;;;20.70;101260.00;;;;10242288;28;21484;-76
2023/08/07 16:37:10;;;;;;;1.48;0.95;;;;;20.40;101263.00;;;;10241790;28;20339;-77
2023/08/07 16:42:11;;;;;;;3.92;1.50;;;;;20.30;101267.00;;;;10239300;28;20214;-75
2023/08/07 16:47:13;;;;;;;2.92;1.10;;;;;20.40;101267.00;;;;10258787;28;20223;-76
2023/08/07 16:52:14;;;;;;;0.95;0.90;;;;;20.50;101265.00;;;;10238951;28;20207;-75
2023/08/07 16:57:17;;;;;;;1.52;1.15;;;;;20.20;101257.00;;;;10253293;28;20277;-76
2023/08/07 17:02:18;;;;;;;1.80;0.98;;;;;19.90;101268.00;;;;10239234;28;21055;-76
2023/08/07 17:07:19;;;;;;;3.85;1.30;;;;;19.90;101265.00;;;;10255628;28;20348;-77
2023/08/07 17:12:21;;;;;;;3.42;1.10;;;;;20.30;101253.00;;;;10254677;28;20251;-77
2023/08/07 17:17:22;;;;;;;3.03;1.20;;;;;20.20;101259.00;;;;10257070;28;20207;-76
2023/08/07 17:22:24;;;;;;;1.08;0.90;;;;;19.90;101263.00;;;;10236133;28;20238;-76
2023/08/07 17:27:25;;;;;;;1.15;0.98;;;;;19.70;101251.00;;;;10252918;28;20227;-75
2023/08/07 17:32:26;;;;;;;1.88;1.23;;;;;19.50;101256.00;;;;10238277;28;20301;-76
2023/08/07 17:37:28;;;;;;;5.90;1.10;;;;;19.50;101263.00;;;;10235658;28;20203;-76
2023/08/07 17:42:29;;;;;;;1.10;1.00;;;;;19.60;101257.00;;;;10238937;28;20796;-75
2023/08/07 17:47:31;;;;;;;3.65;1.10;;;;;19.40;101255.00;;;;10254630;28;22688;-75
2023/08/07 17:52:32;;;;;;;2.60;1.30;;;;;19.30;101255.00;;;;10254726;28;20211;-74
2023/08/07 17:57:34;;;;;;;1.58;1.00;;;;;19.30;101256.00;;;;10251443;28;20225;-75
2023/08/07 18:02:35;;;;;;;3.47;1.20;;;;;19.30;101253.00;;;;10253717;28;20227;-76
2023/08/07 18:07:38;;;;;;;3.53;1.20;;;;;19.20;101250.00;;;;10263271;28;20234;-76
2023/08/07 18:12:39;;;;;;;2.45;1.20;;;;;18.90;101237.00;;;;10250153;28;20207;-76
2023/08/07 18:17:41;;;;;;;1.77;1.05;;;;;18.70;101243.00;;;;10266152;28;21503;-75
2023/08/07 18:22:42;;;;;;;2.65;1.23;;;;;18.40;101251.00;;;;10266710;28;20304;-76
2023/08/07 18:27:44;;;;;;;4.88;1.48;;;;;18.10;101238.00;;;;10266116;28;20272;-76
2023/08/07 18:32:45;;;;;;;3.22;1.30;;;;;17.90;101243.00;;;;10251138;28;20199;-77
2023/08/07 18:37:47;;;;;;;3.05;1.60;;;;;17.70;101237.00;;;;10265708;28;20214;-76
2023/08/07 18:42:48;;;;;;;4.75;1.42;;;;;17.40;101243.00;;;;10249076;28;20223;-75
2023/08/07 18:47:50;;;;;;;2.53;1.55;;;;;17.20;101244.00;;;;10268189;28;20815;-75
2023/08/07 18:52:52;;;;;;;2.10;1.35;;;;;17.00;101241.00;;;;10264312;28;20562;-76
2023/08/07 18:57:53;;;;;;;3.92;1.30;;;;;16.90;101237.00;;;;10247673;28;20207;-75
2023/08/07 19:02:55;;;;;;;2.63;1.30;;;;;16.70;101244.00;;;;10266407;28;20203;-76
2023/08/07 19:07:56;;;;;;;3.75;1.45;;;;;16.50;101233.00;;;;10266755;28;21152;-76
2023/08/07 19:12:58;;;;;;;4.82;1.67;;;;;16.30;101235.00;;;;10264597;28;20207;-77
2023/08/07 19:17:59;;;;;;;2.72;1.40;;;;;16.00;101221.00;;;;10245333;28;20669;-76
2023/08/07 19:23:02;;;;;;;3.78;1.60;;;;;15.80;101218.00;;;;10224210;28;20570;-75
2023/08/07 19:28:04;;;;;;;3.55;1.58;;;;;15.60;101222.00;;;;10259192;28;20651;-75
2023/08/07 19:33:05;;;;;;;3.58;2.08;;;;;15.50;101229.00;;;;10259011;28;20941;-76
2023/08/07 19:38:07;;;;;;;2.17;1.67;;;;;15.30;101232.00;;;;10255916;28;20247;-76
2023/08/07 19:43:08;;;;;;;4.55;1.83;;;;;15.10;101230.00;;;;10225757;28;20728;-76
2023/08/07 19:48:09;;;;;;;3.58;1.65;;;;;15.00;101228.00;;;;10242885;28;21292;-76
2023/08/07 19:53:11;;;;;;;6.18;1.90;;;;;14.90;101227.00;;;;10238899;28;21493;-76
2023/08/07 19:58:12;;;;;;;3.50;1.67;;;;;14.80;101222.00;;;;10240681;28;20289;-76
2023/08/07 20:03:15;;;;;;;2.80;2.03;;;;;14.70;101224.00;;;;10257753;28;20791;-76
2023/08/07 20:08:16;;;;;;;4.95;2.20;;;;;14.60;101215.00;;;;10257225;28;20876;-75
2023/08/07 20:13:17;;;;;;;3.28;2.15;;;;;14.60;101208.00;;;;10242309;28;20207;-76
2023/08/07 20:18:18;;;;;;;6.28;2.88;;;;;14.50;101212.00;;;;10240155;28;20274;-78
2023/08/07 20:23:20;;;;;;;5.03;2.60;;;;;14.50;101207.00;;;;10258067;28;22018;-77
2023/08/07 20:28:21;;;;;;;4.47;2.85;;;;;14.40;101202.00;;;;10259375;28;20361;-77
2023/08/07 20:33:23;;;;;;;5.80;2.97;;;;;14.30;101209.00;;;;10258764;28;20207;-77
2023/08/07 20:38:24;;;;;;;3.72;3.20;;;;;14.30;101213.00;;;;10256691;28;20907;-78
2023/08/07 20:43:26;;;;;;;4.20;2.90;;;;;14.20;101201.00;;;;10244901;28;21288;-78
2023/08/07 20:48:27;;;;;;;5.20;3.10;;;;;14.10;101200.00;;;;10240324;28;20935;-76
2023/08/07 20:53:29;;;;;;;3.72;3.15;;;;;14.10;101193.00;;;;10254582;28;20438;-77
2023/08/07 20:58:32;;;;;;;7.05;3.55;;;;;14.10;101190.00;;;;10258310;28;21382;-77
2023/08/07 21:03:33;;;;;;;8.13;3.42;;;;;14.00;101191.00;;;;10258055;28;20351;-77
2023/08/07 21:08:34;;;;;;;5.70;3.40;;;;;13.90;101184.00;;;;10254852;28;20616;-76
2023/08/07 21:13:37;;;;;;;5.50;3.25;;;;;13.80;101190.00;;;;10237585;28;20309;-76
2023/08/07 21:18:42;;;;;;;6.13;2.92;;;;;13.70;101183.00;;;;10256151;28;20207;-76
2023/08/07 21:23:43;;;;;;;9.40;3.30;;;;;13.70;101188.00;;;;10256280;28;20238;-78
2023/08/07 21:28:45;;;;;;;4.80;3.10;;;;;13.80;101195.00;;;;10256047;28;21428;-77
2023/08/07 21:33:46;;;;;;;5.53;3.07;;;;;13.80;101187.00;;;;10206969;28;21504;-76
2023/08/07 21:38:48;;;;;;;4.97;3.00;;;;;13.90;101179.00;;;;10239577;28;20222;-77
2023/08/07 21:43:49;;;;;;;7.17;2.70;;;;;14.10;101178.00;;;;10254566;28;20791;-76
2023/08/07 21:48:50;;;;;;;2.87;2.27;;;;;14.30;101176.00;;;;10253103;28;20231;-76
2023/08/07 21:53:51;;;;;;;5.35;2.25;;;;;14.40;101166.00;;;;10254743;28;20909;-78
2023/08/07 21:58:53;;;;;;;4.57;2.30;;;;;14.40;101160.00;;;;10256111;28;21714;-77
2023/08/07 22:03:54;;;;;;;8.52;2.72;;;;;14.20;101164.00;;;;10255479;28;20674;-76
2023/08/07 22:08:56;;;;;;;9.43;3.03;;;;;14.10;101160.00;;;;10255079;28;20857;-77
2023/08/07 22:13:59;;;;;;;8.23;2.90;;;;;14.00;101163.00;;;;10236090;28;20279;-77
2023/08/07 22:19:00;;;;;;;8.50;2.67;;;;;14.00;101149.00;;;;10254695;28;20214;-76
2023/08/07 22:24:01;;;;;;;5.20;2.70;;;;;14.00;101157.00;;;;10254402;28;20206;-76
2023/08/07 22:29:03;;;;;;;6.10;2.90;;;;;13.90;101155.00;;;;10220432;28;20227;-75
2023/08/07 22:34:04;;;;;;;4.33;2.27;;;;;13.90;101148.00;;;;10237288;28;20246;-76
2023/08/07 22:39:05;;;;;;;7.60;2.90;;;;;13.90;101149.00;;;;10237724;28;22015;-75
2023/08/07 22:44:06;;;;;;;5.30;2.30;;;;;13.90;101144.00;;;;10254354;28;20196;-77
2023/08/07 22:49:08;;;;;;;7.45;2.72;;;;;13.80;101135.00;;;;10254786;28;20285;-76
2023/08/07 22:54:11;;;;;;;4.83;2.90;;;;;13.70;101143.00;;;;10255812;28;20718;-77
2023/08/07 22:59:12;;;;;;;4.43;2.50;;;;;13.60;101147.00;;;;10228723;28;20211;-77
2023/08/07 23:04:14;;;;;;;4.33;2.40;;;;;13.60;101149.00;;;;10261282;28;20717;-76
2023/08/07 23:09:15;;;;;;;3.73;2.33;;;;;13.60;101138.00;;;;10259048;28;21608;-78
2023/08/07 23:14:17;;;;;;;5.73;2.30;;;;;13.60;101132.00;;;;10261918;28;20239;-75
2023/08/07 23:19:18;;;;;;;4.87;2.60;;;;;13.50;101130.00;;;;10262942;28;20281;-76
2023/08/07 23:24:19;;;;;;;5.20;2.40;;;;;13.40;101118.00;;;;10225082;28;20218;-77
2023/08/07 23:29:20;;;;;;;7.20;2.60;;;;;13.40;101116.00;;;;10259023;28;22005;-77
2023/08/07 23:34:22;;;;;;;6.47;2.67;;;;;13.40;101111.00;;;;10259972;28;20212;-76
2023/08/07 23:39:23;;;;;;;4.77;2.10;;;;;13.30;101106.00;;;;10240554;28;21107;-77
2023/08/07 23:44:25;;;;;;;5.67;2.50;;;;;13.30;101103.00;;;;10257079;28;20215;-78
2023/08/07 23:49:26;;;;;;;5.50;2.30;;;;;13.20;101096.00;;;;10258910;28;20312;-77
2023/08/07 23:54:28;;;;;;;7.73;2.57;;;;;13.30;101096.00;;;;10258761;28;20203;-76
2023/08/07 23:59:29;;;;;;;7.70;2.57;;;;;13.30;101083.00;;;;10259786;28;20590;-77
